KN211 EDDH-LIML
Flight info
| Callsign | KN211 |
|---|---|
| Flight time | N/A |
| Altitude | 39000 |
| Route | IDEKO8C/05 IDEKO N850 LARBU/N0459F400 DCT EBANA/N0458F390 DCT OMOGI T721 SUNEG T715 PABLA Y163 NATOR N850 ODINA |
| Aircraft | A333/H-SDE3GHIJ2J3J5M1RVWXY/LB2D1 |
Departure
| Time | 2026-02-19 14:41 |
|---|---|
| Airport | Hamburg Helmut Schmidt Airport (EDDH) |
Arrival
| Time | N/A |
|---|---|
| Airport | Milano Linate Airport (LIML) |
| Time | Latitude | Longitude | Altitude | Speed | Heading |
|---|---|---|---|---|---|
| 2026-02-19 14:06 | 53.63281 | 10.00366 | 48 ft | 0 kts | 85° |
| 2026-02-19 14:29 | 53.63280 | 10.00363 | 47 ft | 2 kts | 85° |
| 2026-02-19 14:29 | 53.63282 | 10.00287 | 45 ft | 8 kts | 102° |
| 2026-02-19 14:29 | 53.63297 | 10.00225 | 44 ft | 1 kts | 136° |
| 2026-02-19 14:29 | 53.63311 | 10.00202 | 43 ft | 2 kts | 147° |
| 2026-02-19 14:30 | 53.63313 | 10.00197 | 43 ft | 0 kts | 170° |
| 2026-02-19 14:30 | 53.63312 | 10.00198 | 43 ft | 0 kts | 170° |
| 2026-02-19 14:35 | 53.63270 | 10.00207 | 43 ft | 12 kts | 173° |
| 2026-02-19 14:35 | 53.63144 | 10.00223 | 42 ft | 20 kts | 175° |
| 2026-02-19 14:35 | 53.63015 | 10.00166 | 42 ft | 19 kts | 212° |
| 2026-02-19 14:35 | 53.62903 | 10.00051 | 40 ft | 19 kts | 205° |
| 2026-02-19 14:36 | 53.62780 | 9.99941 | 40 ft | 19 kts | 208° |
| 2026-02-19 14:36 | 53.62626 | 9.99660 | 44 ft | 15 kts | 257° |
| 2026-02-19 14:36 | 53.62607 | 9.99482 | 45 ft | 15 kts | 258° |
| 2026-02-19 14:37 | 53.62586 | 9.99311 | 47 ft | 15 kts | 258° |
| 2026-02-19 14:37 | 53.62565 | 9.99130 | 50 ft | 16 kts | 259° |
| 2026-02-19 14:37 | 53.62540 | 9.98907 | 48 ft | 22 kts | 258° |
| 2026-02-19 14:37 | 53.62507 | 9.98631 | 45 ft | 26 kts | 259° |
| 2026-02-19 14:38 | 53.62472 | 9.98312 | 43 ft | 29 kts | 257° |
| 2026-02-19 14:38 | 53.62377 | 9.97984 | 38 ft | 33 kts | 230° |
| 2026-02-19 14:38 | 53.62233 | 9.97700 | 36 ft | 30 kts | 230° |
| 2026-02-19 14:38 | 53.62188 | 9.97462 | 32 ft | 11 kts | 292° |
| 2026-02-19 14:39 | 53.62196 | 9.97439 | 32 ft | 0 kts | 306° |
| 2026-02-19 14:39 | 53.62209 | 9.97415 | 32 ft | 8 kts | 314° |
| 2026-02-19 14:40 | 53.62308 | 9.97361 | 33 ft | 22 kts | 26° |
| 2026-02-19 14:40 | 53.62938 | 9.98634 | 43 ft | 126 kts | 49° |
| 2026-02-19 14:40 | 53.63600 | 9.99962 | 58 ft | 169 kts | 53° |
| 2026-02-19 14:41 | 53.64362 | 10.01548 | 555 ft | 177 kts | 55° |
| 2026-02-19 14:41 | 53.65151 | 10.03240 | 959 ft | 193 kts | 56° |
| 2026-02-19 14:41 | 53.66114 | 10.04930 | 1441 ft | 214 kts | 42° |
| 2026-02-19 14:41 | 53.67449 | 10.06199 | 2109 ft | 229 kts | 27° |
| 2026-02-19 14:42 | 53.69016 | 10.06892 | 2821 ft | 243 kts | 14° |
| 2026-02-19 14:42 | 53.70669 | 10.07011 | 3299 ft | 238 kts | 3° |
| 2026-02-19 14:42 | 53.72464 | 10.06463 | 3162 ft | 284 kts | 347° |
| 2026-02-19 14:42 | 53.74157 | 10.04977 | 4418 ft | 279 kts | 324° |
| 2026-02-19 14:43 | 53.75315 | 10.02432 | 5307 ft | 287 kts | 297° |
| 2026-02-19 14:43 | 53.75729 | 9.99082 | 6001 ft | 299 kts | 269° |
| 2026-02-19 14:43 | 53.75241 | 9.95702 | 6724 ft | 304 kts | 242° |
| 2026-02-19 14:43 | 53.74157 | 9.92782 | 7717 ft | 295 kts | 237° |
| 2026-02-19 14:44 | 53.73303 | 9.89656 | 8669 ft | 292 kts | 247° |
| 2026-02-19 14:44 | 53.71743 | 9.83404 | 10272 ft | 292 kts | 246° |
| 2026-02-19 14:44 | 53.70953 | 9.80290 | 11037 ft | 294 kts | 246° |
| 2026-02-19 14:45 | 53.70151 | 9.77130 | 11770 ft | 296 kts | 246° |
| 2026-02-19 14:45 | 53.69343 | 9.73950 | 12459 ft | 299 kts | 246° |
| 2026-02-19 14:45 | 53.68518 | 9.70710 | 13177 ft | 301 kts | 246° |
| 2026-02-19 14:45 | 53.67697 | 9.67494 | 13873 ft | 303 kts | 247° |
| 2026-02-19 14:46 | 53.66872 | 9.64261 | 14547 ft | 306 kts | 247° |
| 2026-02-19 14:46 | 53.65992 | 9.61022 | 15177 ft | 308 kts | 240° |
| 2026-02-19 14:46 | 53.64557 | 9.58338 | 15758 ft | 311 kts | 214° |
| 2026-02-19 14:46 | 53.62600 | 9.56879 | 16328 ft | 312 kts | 190° |
| 2026-02-19 14:47 | 53.60453 | 9.56762 | 16865 ft | 315 kts | 176° |
| 2026-02-19 14:47 | 53.58247 | 9.56599 | 17423 ft | 320 kts | 188° |
| 2026-02-19 14:47 | 53.56042 | 9.56129 | 17907 ft | 325 kts | 187° |
| 2026-02-19 14:47 | 53.53815 | 9.55687 | 18516 ft | 325 kts | 188° |
| 2026-02-19 14:48 | 53.51570 | 9.55241 | 19027 ft | 330 kts | 188° |
| 2026-02-19 14:48 | 53.47009 | 9.54340 | 20118 ft | 336 kts | 189° |
| 2026-02-19 14:48 | 53.44719 | 9.53888 | 20629 ft | 338 kts | 189° |
| 2026-02-19 14:49 | 53.42388 | 9.53431 | 21120 ft | 341 kts | 189° |
| 2026-02-19 14:49 | 53.40048 | 9.52968 | 21562 ft | 345 kts | 189° |
| 2026-02-19 14:49 | 53.37624 | 9.52494 | 22077 ft | 348 kts | 189° |
| 2026-02-19 14:49 | 53.35224 | 9.52024 | 22570 ft | 352 kts | 189° |
| 2026-02-19 14:50 | 53.32791 | 9.51548 | 23006 ft | 356 kts | 189° |
| 2026-02-19 14:50 | 53.30340 | 9.51066 | 23465 ft | 358 kts | 189° |
| 2026-02-19 14:50 | 53.27885 | 9.50587 | 23937 ft | 361 kts | 189° |
| 2026-02-19 14:50 | 53.25382 | 9.50098 | 24360 ft | 365 kts | 189° |
| 2026-02-19 14:51 | 53.22853 | 9.49605 | 24816 ft | 367 kts | 190° |
| 2026-02-19 14:51 | 53.20304 | 9.49106 | 25273 ft | 370 kts | 189° |
| 2026-02-19 14:51 | 53.17754 | 9.48610 | 25696 ft | 373 kts | 189° |
| 2026-02-19 14:51 | 53.15184 | 9.48110 | 26120 ft | 376 kts | 189° |
| 2026-02-19 14:52 | 53.12603 | 9.47610 | 26538 ft | 380 kts | 190° |
| 2026-02-19 14:52 | 53.07304 | 9.46580 | 27377 ft | 386 kts | 189° |
| 2026-02-19 14:52 | 53.04675 | 9.46071 | 27805 ft | 389 kts | 189° |
| 2026-02-19 14:53 | 53.01950 | 9.45545 | 28211 ft | 392 kts | 189° |
| 2026-02-19 14:53 | 52.99249 | 9.45020 | 28598 ft | 396 kts | 190° |
| 2026-02-19 14:53 | 52.96548 | 9.44379 | 28988 ft | 399 kts | 191° |
| 2026-02-19 14:53 | 52.93792 | 9.43720 | 29448 ft | 401 kts | 191° |
| 2026-02-19 14:54 | 52.91045 | 9.43067 | 29884 ft | 403 kts | 191° |
| 2026-02-19 14:54 | 52.88399 | 9.42438 | 30169 ft | 408 kts | 190° |
| 2026-02-19 14:54 | 52.85632 | 9.41784 | 30634 ft | 409 kts | 191° |
| 2026-02-19 14:54 | 52.82873 | 9.41131 | 30975 ft | 412 kts | 191° |
| 2026-02-19 14:55 | 52.80515 | 9.40576 | 31388 ft | 412 kts | 191° |
| 2026-02-19 14:55 | 52.77358 | 9.39828 | 31980 ft | 410 kts | 190° |
| 2026-02-19 14:55 | 52.74500 | 9.39155 | 32188 ft | 416 kts | 191° |
| 2026-02-19 14:55 | 52.71648 | 9.38486 | 32505 ft | 419 kts | 191° |
| 2026-02-19 14:56 | 52.68765 | 9.37806 | 32813 ft | 422 kts | 191° |
| 2026-02-19 14:56 | 52.63029 | 9.36460 | 33666 ft | 422 kts | 190° |
| 2026-02-19 14:56 | 52.60180 | 9.35795 | 33896 ft | 426 kts | 190° |
| 2026-02-19 14:57 | 52.57306 | 9.35122 | 34020 ft | 431 kts | 190° |
| 2026-02-19 14:57 | 52.54443 | 9.34455 | 34282 ft | 434 kts | 189° |
| 2026-02-19 14:57 | 52.51492 | 9.33765 | 34645 ft | 433 kts | 189° |
| 2026-02-19 14:57 | 52.48649 | 9.33104 | 34679 ft | 440 kts | 189° |
| 2026-02-19 14:58 | 52.42589 | 9.31696 | 34703 ft | 452 kts | 189° |
| 2026-02-19 14:58 | 52.39479 | 9.30973 | 34841 ft | 454 kts | 189° |
| 2026-02-19 14:58 | 52.36601 | 9.30307 | 34890 ft | 446 kts | 189° |
| 2026-02-19 14:59 | 52.30441 | 9.28881 | 34901 ft | 451 kts | 189° |
| 2026-02-19 14:59 | 52.24261 | 9.27459 | 34905 ft | 454 kts | 188° |
| 2026-02-19 15:00 | 52.14980 | 9.25328 | 34891 ft | 450 kts | 189° |
| 2026-02-19 15:01 | 52.08886 | 9.23932 | 34867 ft | 449 kts | 188° |
| 2026-02-19 15:01 | 52.02700 | 9.22522 | 34848 ft | 449 kts | 188° |
| 2026-02-19 15:02 | 51.96585 | 9.21130 | 34825 ft | 450 kts | 188° |
| 2026-02-19 15:02 | 51.90393 | 9.19724 | 34798 ft | 447 kts | 188° |
| 2026-02-19 15:03 | 51.84570 | 9.18184 | 34789 ft | 448 kts | 190° |
| 2026-02-19 15:03 | 51.80474 | 9.17019 | 34802 ft | 447 kts | 190° |
| 2026-02-19 15:04 | 51.77474 | 9.16169 | 34807 ft | 447 kts | 190° |
| 2026-02-19 15:05 | 51.71553 | 9.14492 | 34800 ft | 445 kts | 190° |
| 2026-02-19 15:05 | 51.65509 | 9.12791 | 34797 ft | 446 kts | 190° |
| 2026-02-19 15:06 | 51.59673 | 9.11148 | 34809 ft | 445 kts | 190° |
| 2026-02-19 15:06 | 51.53622 | 9.09454 | 34795 ft | 445 kts | 190° |
| 2026-02-19 15:07 | 51.48060 | 9.07897 | 34786 ft | 443 kts | 190° |
| 2026-02-19 15:07 | 51.41774 | 9.06146 | 34788 ft | 444 kts | 190° |
| 2026-02-19 15:08 | 51.32893 | 9.03679 | 34764 ft | 431 kts | 190° |
| 2026-02-19 15:09 | 51.27084 | 9.02068 | 34767 ft | 431 kts | 189° |
| 2026-02-19 15:09 | 51.21345 | 9.00483 | 34805 ft | 433 kts | 190° |
| 2026-02-19 15:10 | 51.15550 | 8.98884 | 34804 ft | 429 kts | 189° |
| 2026-02-19 15:10 | 51.09755 | 8.97293 | 34778 ft | 431 kts | 189° |
| 2026-02-19 15:11 | 51.03949 | 8.95859 | 34770 ft | 430 kts | 182° |
| 2026-02-19 15:11 | 50.98415 | 8.96034 | 34723 ft | 431 kts | 179° |
| 2026-02-19 15:12 | 50.92342 | 8.96189 | 34812 ft | 432 kts | 179° |